sensor_id;sensor_type;location;lat;lon;timestamp;temperature;humidity
51383;DHT22;37475;43.358;1.248;2022-08-01T00:00:33;22.90;74.30
51383;DHT22;37475;43.358;1.248;2022-08-01T00:02:59;22.90;74.30
51383;DHT22;37475;43.358;1.248;2022-08-01T00:05:25;22.90;74.00
51383;DHT22;37475;43.358;1.248;2022-08-01T00:07:51;22.90;74.30
51383;DHT22;37475;43.358;1.248;2022-08-01T00:10:17;22.80;74.70
51383;DHT22;37475;43.358;1.248;2022-08-01T00:12:44;22.80;74.10
51383;DHT22;37475;43.358;1.248;2022-08-01T00:15:13;22.80;74.40
51383;DHT22;37475;43.358;1.248;2022-08-01T00:17:40;22.70;74.20
51383;DHT22;37475;43.358;1.248;2022-08-01T00:20:09;22.70;74.40
51383;DHT22;37475;43.358;1.248;2022-08-01T00:22:36;22.80;74.20
51383;DHT22;37475;43.358;1.248;2022-08-01T00:25:04;22.70;74.60
51383;DHT22;37475;43.358;1.248;2022-08-01T00:27:30;22.70;74.80
51383;DHT22;37475;43.358;1.248;2022-08-01T00:29:57;22.60;74.80
51383;DHT22;37475;43.358;1.248;2022-08-01T00:32:23;22.60;74.70
51383;DHT22;37475;43.358;1.248;2022-08-01T00:34:48;22.60;75.10
51383;DHT22;37475;43.358;1.248;2022-08-01T00:37:14;22.60;75.10
51383;DHT22;37475;43.358;1.248;2022-08-01T00:39:40;22.50;75.50
51383;DHT22;37475;43.358;1.248;2022-08-01T00:42:07;22.50;75.30
51383;DHT22;37475;43.358;1.248;2022-08-01T00:44:34;22.40;75.70
51383;DHT22;37475;43.358;1.248;2022-08-01T00:47:00;22.40;75.80
51383;DHT22;37475;43.358;1.248;2022-08-01T00:49:27;22.30;76.20
51383;DHT22;37475;43.358;1.248;2022-08-01T00:51:54;22.30;76.40
51383;DHT22;37475;43.358;1.248;2022-08-01T00:54:20;22.20;76.70
51383;DHT22;37475;43.358;1.248;2022-08-01T00:56:46;22.10;77.30
51383;DHT22;37475;43.358;1.248;2022-08-01T00:59:14;22.00;77.40
51383;DHT22;37475;43.358;1.248;2022-08-01T01:01:42;22.00;77.40
51383;DHT22;37475;43.358;1.248;2022-08-01T01:04:08;22.00;77.50
51383;DHT22;37475;43.358;1.248;2022-08-01T01:09:42;21.90;77.90
51383;DHT22;37475;43.358;1.248;2022-08-01T01:15:17;21.80;77.90
51383;DHT22;37475;43.358;1.248;2022-08-01T01:17:57;21.80;78.10
51383;DHT22;37475;43.358;1.248;2022-08-01T01:20:51;21.70;78.60
51383;DHT22;37475;43.358;1.248;2022-08-01T01:29:30;21.60;78.80
51383;DHT22;37475;43.358;1.248;2022-08-01T01:34:42;21.50;79.10
51383;DHT22;37475;43.358;1.248;2022-08-01T01:37:12;21.50;79.40
51383;DHT22;37475;43.358;1.248;2022-08-01T01:39:41;21.30;80.00
51383;DHT22;37475;43.358;1.248;2022-08-01T01:42:08;21.30;79.80
51383;DHT22;37475;43.358;1.248;2022-08-01T01:44:36;21.30;79.90
51383;DHT22;37475;43.358;1.248;2022-08-01T01:47:04;21.30;80.20
51383;DHT22;37475;43.358;1.248;2022-08-01T01:49:31;21.30;80.00
51383;DHT22;37475;43.358;1.248;2022-08-01T01:51:59;21.20;80.30
51383;DHT22;37475;43.358;1.248;2022-08-01T01:54:31;21.20;80.30
51383;DHT22;37475;43.358;1.248;2022-08-01T01:57:00;21.20;80.50
51383;DHT22;37475;43.358;1.248;2022-08-01T01:59:30;21.10;80.30
51383;DHT22;37475;43.358;1.248;2022-08-01T02:02:01;21.10;80.60
51383;DHT22;37475;43.358;1.248;2022-08-01T02:04:30;21.10;80.60
51383;DHT22;37475;43.358;1.248;2022-08-01T02:06:58;21.10;80.90
51383;DHT22;37475;43.358;1.248;2022-08-01T02:09:26;21.00;81.20
51383;DHT22;37475;43.358;1.248;2022-08-01T02:11:53;21.00;81.40
51383;DHT22;37475;43.358;1.248;2022-08-01T02:14:22;21.00;81.30
51383;DHT22;37475;43.358;1.248;2022-08-01T02:16:50;21.00;81.60
51383;DHT22;37475;43.358;1.248;2022-08-01T02:19:19;20.80;82.20
51383;DHT22;37475;43.358;1.248;2022-08-01T02:22:06;20.80;82.50
51383;DHT22;37475;43.358;1.248;2022-08-01T02:27:10;20.80;82.40
51383;DHT22;37475;43.358;1.248;2022-08-01T02:29:42;20.80;82.40
51383;DHT22;37475;43.358;1.248;2022-08-01T02:32:16;20.70;82.70
51383;DHT22;37475;43.358;1.248;2022-08-01T02:34:47;20.60;83.40
51383;DHT22;37475;43.358;1.248;2022-08-01T02:37:15;20.60;83.50
51383;DHT22;37475;43.358;1.248;2022-08-01T02:39:42;20.60;83.20
51383;DHT22;37475;43.358;1.248;2022-08-01T02:42:11;20.60;83.20
51383;DHT22;37475;43.358;1.248;2022-08-01T02:44:39;20.50;83.80
51383;DHT22;37475;43.358;1.248;2022-08-01T02:47:07;20.40;84.10
51383;DHT22;37475;43.358;1.248;2022-08-01T02:49:39;20.40;84.40
51383;DHT22;37475;43.358;1.248;2022-08-01T02:52:12;20.40;84.30
51383;DHT22;37475;43.358;1.248;2022-08-01T02:54:43;20.30;84.50
51383;DHT22;37475;43.358;1.248;2022-08-01T02:57:10;20.30;84.50
51383;DHT22;37475;43.358;1.248;2022-08-01T02:59:38;20.30;84.70
51383;DHT22;37475;43.358;1.248;2022-08-01T03:02:05;20.30;84.60
51383;DHT22;37475;43.358;1.248;2022-08-01T03:04:34;20.30;84.50
51383;DHT22;37475;43.358;1.248;2022-08-01T03:07:04;20.20;84.60
51383;DHT22;37475;43.358;1.248;2022-08-01T03:09:35;20.20;84.70
51383;DHT22;37475;43.358;1.248;2022-08-01T03:12:06;20.20;84.90
51383;DHT22;37475;43.358;1.248;2022-08-01T03:14:38;20.20;84.30
51383;DHT22;37475;43.358;1.248;2022-08-01T03:17:05;20.20;84.10
51383;DHT22;37475;43.358;1.248;2022-08-01T03:19:31;20.20;84.20
51383;DHT22;37475;43.358;1.248;2022-08-01T03:21:59;20.20;84.40
51383;DHT22;37475;43.358;1.248;2022-08-01T03:24:30;20.10;84.50
51383;DHT22;37475;43.358;1.248;2022-08-01T03:26:57;20.00;85.20
51383;DHT22;37475;43.358;1.248;2022-08-01T03:29:26;19.90;85.60
51383;DHT22;37475;43.358;1.248;2022-08-01T03:31:53;19.90;85.90
51383;DHT22;37475;43.358;1.248;2022-08-01T03:34:19;19.80;86.00
51383;DHT22;37475;43.358;1.248;2022-08-01T03:40:13;19.80;85.80
51383;DHT22;37475;43.358;1.248;2022-08-01T03:42:44;19.80;85.90
51383;DHT22;37475;43.358;1.248;2022-08-01T03:45:19;19.80;85.60
51383;DHT22;37475;43.358;1.248;2022-08-01T03:47:49;19.80;85.80
51383;DHT22;37475;43.358;1.248;2022-08-01T03:50:20;19.80;85.50
51383;DHT22;37475;43.358;1.248;2022-08-01T03:52:49;19.80;85.80
51383;DHT22;37475;43.358;1.248;2022-08-01T03:55:16;19.80;85.90
51383;DHT22;37475;43.358;1.248;2022-08-01T03:57:45;19.70;86.10
51383;DHT22;37475;43.358;1.248;2022-08-01T04:00:13;19.80;85.90
51383;DHT22;37475;43.358;1.248;2022-08-01T04:02:49;19.70;86.10
51383;DHT22;37475;43.358;1.248;2022-08-01T04:05:16;19.70;86.20
51383;DHT22;37475;43.358;1.248;2022-08-01T04:07:49;19.70;86.20
51383;DHT22;37475;43.358;1.248;2022-08-01T04:10:22;19.70;86.20
51383;DHT22;37475;43.358;1.248;2022-08-01T04:12:48;19.70;86.00
51383;DHT22;37475;43.358;1.248;2022-08-01T04:15:15;19.60;86.30
51383;DHT22;37475;43.358;1.248;2022-08-01T04:17:40;19.60;86.00
51383;DHT22;37475;43.358;1.248;2022-08-01T04:20:07;19.70;85.90
51383;DHT22;37475;43.358;1.248;2022-08-01T04:22:33;19.80;85.70
51383;DHT22;37475;43.358;1.248;2022-08-01T04:25:02;19.60;85.60
51383;DHT22;37475;43.358;1.248;2022-08-01T04:27:37;19.60;85.70
51383;DHT22;37475;43.358;1.248;2022-08-01T04:30:06;19.70;85.70
51383;DHT22;37475;43.358;1.248;2022-08-01T04:32:35;19.60;85.50
51383;DHT22;37475;43.358;1.248;2022-08-01T04:35:07;19.60;85.90
51383;DHT22;37475;43.358;1.248;2022-08-01T04:37:36;19.60;86.00
51383;DHT22;37475;43.358;1.248;2022-08-01T04:40:06;19.50;86.30
51383;DHT22;37475;43.358;1.248;2022-08-01T04:42:33;19.50;86.10
51383;DHT22;37475;43.358;1.248;2022-08-01T04:44:59;19.50;85.90
51383;DHT22;37475;43.358;1.248;2022-08-01T04:47:26;19.50;85.80
51383;DHT22;37475;43.358;1.248;2022-08-01T04:49:52;19.60;85.70
51383;DHT22;37475;43.358;1.248;2022-08-01T04:52:19;19.60;85.80
51383;DHT22;37475;43.358;1.248;2022-08-01T04:54:45;19.60;85.70
51383;DHT22;37475;43.358;1.248;2022-08-01T04:57:14;19.60;85.80
51383;DHT22;37475;43.358;1.248;2022-08-01T04:59:43;19.50;86.00
51383;DHT22;37475;43.358;1.248;2022-08-01T05:02:12;19.50;86.00
51383;DHT22;37475;43.358;1.248;2022-08-01T05:04:40;19.50;86.20
51383;DHT22;37475;43.358;1.248;2022-08-01T05:07:07;19.40;86.60
51383;DHT22;37475;43.358;1.248;2022-08-01T05:09:33;19.40;86.60
51383;DHT22;37475;43.358;1.248;2022-08-01T05:12:00;19.50;86.10
51383;DHT22;37475;43.358;1.248;2022-08-01T05:14:28;19.50;86.20
51383;DHT22;37475;43.358;1.248;2022-08-01T05:16:58;19.50;86.00
51383;DHT22;37475;43.358;1.248;2022-08-01T05:19:25;19.50;86.10
51383;DHT22;37475;43.358;1.248;2022-08-01T05:21:52;19.50;86.00
51383;DHT22;37475;43.358;1.248;2022-08-01T05:24:18;19.60;85.80
51383;DHT22;37475;43.358;1.248;2022-08-01T05:26:43;19.60;85.90
51383;DHT22;37475;43.358;1.248;2022-08-01T05:29:09;19.60;85.70
51383;DHT22;37475;43.358;1.248;2022-08-01T05:31:35;19.60;85.80
51383;DHT22;37475;43.358;1.248;2022-08-01T05:34:02;19.70;85.70
51383;DHT22;37475;43.358;1.248;2022-08-01T05:36:28;19.70;86.00
51383;DHT22;37475;43.358;1.248;2022-08-01T05:38:54;19.60;85.70
51383;DHT22;37475;43.358;1.248;2022-08-01T05:41:20;19.70;85.80
51383;DHT22;37475;43.358;1.248;2022-08-01T05:43:46;19.80;85.60
51383;DHT22;37475;43.358;1.248;2022-08-01T05:46:12;19.80;85.50
51383;DHT22;37475;43.358;1.248;2022-08-01T05:48:38;19.90;85.20
51383;DHT22;37475;43.358;1.248;2022-08-01T05:51:05;19.90;85.20
51383;DHT22;37475;43.358;1.248;2022-08-01T05:53:31;20.00;85.10
51383;DHT22;37475;43.358;1.248;2022-08-01T05:55:59;20.00;85.00
51383;DHT22;37475;43.358;1.248;2022-08-01T05:58:27;20.00;84.90
51383;DHT22;37475;43.358;1.248;2022-08-01T06:00:53;20.10;84.80
51383;DHT22;37475;43.358;1.248;2022-08-01T06:03:19;20.20;84.50
51383;DHT22;37475;43.358;1.248;2022-08-01T06:05:45;20.30;84.30
51383;DHT22;37475;43.358;1.248;2022-08-01T06:08:11;20.40;84.30
51383;DHT22;37475;43.358;1.248;2022-08-01T06:10:36;20.50;84.10
51383;DHT22;37475;43.358;1.248;2022-08-01T06:13:02;20.50;84.10
51383;DHT22;37475;43.358;1.248;2022-08-01T06:15:32;20.60;84.00
51383;DHT22;37475;43.358;1.248;2022-08-01T06:17:58;20.50;84.20
51383;DHT22;37475;43.358;1.248;2022-08-01T06:20:24;20.50;83.90
51383;DHT22;37475;43.358;1.248;2022-08-01T06:22:50;20.50;83.70
51383;DHT22;37475;43.358;1.248;2022-08-01T06:25:17;20.60;83.50
51383;DHT22;37475;43.358;1.248;2022-08-01T06:27:44;20.60;83.00
51383;DHT22;37475;43.358;1.248;2022-08-01T06:30:10;20.70;82.80
51383;DHT22;37475;43.358;1.248;2022-08-01T06:32:36;20.80;82.80
51383;DHT22;37475;43.358;1.248;2022-08-01T06:35:03;20.80;82.50
51383;DHT22;37475;43.358;1.248;2022-08-01T06:37:30;20.80;82.20
51383;DHT22;37475;43.358;1.248;2022-08-01T06:40:00;20.80;82.50
51383;DHT22;37475;43.358;1.248;2022-08-01T06:42:30;21.00;82.70
51383;DHT22;37475;43.358;1.248;2022-08-01T06:45:07;21.10;81.90
51383;DHT22;37475;43.358;1.248;2022-08-01T06:47:35;21.20;81.40
51383;DHT22;37475;43.358;1.248;2022-08-01T06:50:03;21.30;81.80
51383;DHT22;37475;43.358;1.248;2022-08-01T06:52:29;21.50;81.30
51383;DHT22;37475;43.358;1.248;2022-08-01T06:54:55;21.50;80.00
51383;DHT22;37475;43.358;1.248;2022-08-01T06:57:21;21.50;79.80
51383;DHT22;37475;43.358;1.248;2022-08-01T06:59:47;21.50;80.00
51383;DHT22;37475;43.358;1.248;2022-08-01T07:02:13;21.50;79.20
51383;DHT22;37475;43.358;1.248;2022-08-01T07:04:39;21.50;79.00
51383;DHT22;37475;43.358;1.248;2022-08-01T07:07:05;21.60;79.00
51383;DHT22;37475;43.358;1.248;2022-08-01T07:09:31;21.60;78.90
51383;DHT22;37475;43.358;1.248;2022-08-01T07:11:56;21.60;79.50
51383;DHT22;37475;43.358;1.248;2022-08-01T07:14:23;21.70;78.80
51383;DHT22;37475;43.358;1.248;2022-08-01T07:16:50;21.80;78.50
51383;DHT22;37475;43.358;1.248;2022-08-01T07:19:16;22.00;78.50
51383;DHT22;37475;43.358;1.248;2022-08-01T07:21:43;22.10;78.20
51383;DHT22;37475;43.358;1.248;2022-08-01T07:24:11;22.00;77.90
51383;DHT22;37475;43.358;1.248;2022-08-01T07:26:43;22.10;77.80
51383;DHT22;37475;43.358;1.248;2022-08-01T07:29:10;22.10;77.60
51383;DHT22;37475;43.358;1.248;2022-08-01T07:31:36;22.30;77.70
51383;DHT22;37475;43.358;1.248;2022-08-01T07:34:02;22.40;77.00
51383;DHT22;37475;43.358;1.248;2022-08-01T07:36:28;22.50;75.90
51383;DHT22;37475;43.358;1.248;2022-08-01T07:38:54;22.60;75.40
51383;DHT22;37475;43.358;1.248;2022-08-01T07:41:20;22.80;75.50
51383;DHT22;37475;43.358;1.248;2022-08-01T07:43:46;22.80;75.10
51383;DHT22;37475;43.358;1.248;2022-08-01T07:46:15;22.80;75.40
51383;DHT22;37475;43.358;1.248;2022-08-01T07:48:42;22.90;74.80
51383;DHT22;37475;43.358;1.248;2022-08-01T07:51:07;23.00;74.40
51383;DHT22;37475;43.358;1.248;2022-08-01T07:53:35;23.10;74.30
51383;DHT22;37475;43.358;1.248;2022-08-01T07:56:01;23.00;73.90
51383;DHT22;37475;43.358;1.248;2022-08-01T07:58:30;23.10;73.90
51383;DHT22;37475;43.358;1.248;2022-08-01T08:00:56;23.30;73.80
51383;DHT22;37475;43.358;1.248;2022-08-01T08:03:22;23.50;72.60
51383;DHT22;37475;43.358;1.248;2022-08-01T08:05:47;23.50;72.30
51383;DHT22;37475;43.358;1.248;2022-08-01T08:08:13;23.50;72.30
51383;DHT22;37475;43.358;1.248;2022-08-01T08:10:41;23.60;71.80
51383;DHT22;37475;43.358;1.248;2022-08-01T08:13:07;23.70;71.90
51383;DHT22;37475;43.358;1.248;2022-08-01T08:15:32;23.90;70.90
51383;DHT22;37475;43.358;1.248;2022-08-01T08:17:58;23.90;70.70
51383;DHT22;37475;43.358;1.248;2022-08-01T08:20:24;23.80;70.60
51383;DHT22;37475;43.358;1.248;2022-08-01T08:22:52;23.80;71.40
51383;DHT22;37475;43.358;1.248;2022-08-01T08:25:19;24.00;70.40
51383;DHT22;37475;43.358;1.248;2022-08-01T08:27:46;24.20;70.30
51383;DHT22;37475;43.358;1.248;2022-08-01T08:30:12;24.20;69.50
51383;DHT22;37475;43.358;1.248;2022-08-01T08:32:38;24.30;69.50
51383;DHT22;37475;43.358;1.248;2022-08-01T08:35:05;24.40;69.40
51383;DHT22;37475;43.358;1.248;2022-08-01T08:37:32;24.50;68.60
51383;DHT22;37475;43.358;1.248;2022-08-01T08:40:03;24.50;68.80
51383;DHT22;37475;43.358;1.248;2022-08-01T08:42:29;24.70;67.70
51383;DHT22;37475;43.358;1.248;2022-08-01T08:44:55;24.70;67.80
51383;DHT22;37475;43.358;1.248;2022-08-01T08:47:22;24.90;68.10
51383;DHT22;37475;43.358;1.248;2022-08-01T08:49:51;25.00;67.10
51383;DHT22;37475;43.358;1.248;2022-08-01T08:52:22;25.00;67.50
51383;DHT22;37475;43.358;1.248;2022-08-01T08:54:49;24.90;67.10
51383;DHT22;37475;43.358;1.248;2022-08-01T08:57:19;25.00;67.30
51383;DHT22;37475;43.358;1.248;2022-08-01T08:59:46;25.30;67.30
51383;DHT22;37475;43.358;1.248;2022-08-01T09:02:12;25.30;66.90
51383;DHT22;37475;43.358;1.248;2022-08-01T09:04:38;25.30;66.70
51383;DHT22;37475;43.358;1.248;2022-08-01T09:07:06;25.40;66.50
51383;DHT22;37475;43.358;1.248;2022-08-01T09:09:33;25.80;66.10
51383;DHT22;37475;43.358;1.248;2022-08-01T09:11:59;25.90;65.60
51383;DHT22;37475;43.358;1.248;2022-08-01T09:14:27;26.10;64.60
51383;DHT22;37475;43.358;1.248;2022-08-01T09:17:07;26.30;64.30
51383;DHT22;37475;43.358;1.248;2022-08-01T09:19:41;26.30;62.80
51383;DHT22;37475;43.358;1.248;2022-08-01T09:22:17;25.90;64.30
51383;DHT22;37475;43.358;1.248;2022-08-01T09:25:01;26.00;64.90
51383;DHT22;37475;43.358;1.248;2022-08-01T09:27:33;26.10;62.50
51383;DHT22;37475;43.358;1.248;2022-08-01T09:30:15;26.30;62.40
51383;DHT22;37475;43.358;1.248;2022-08-01T09:33:12;26.50;61.60
51383;DHT22;37475;43.358;1.248;2022-08-01T09:35:38;26.50;62.10
51383;DHT22;37475;43.358;1.248;2022-08-01T09:38:20;26.50;61.40
51383;DHT22;37475;43.358;1.248;2022-08-01T09:40:57;26.50;61.40
51383;DHT22;37475;43.358;1.248;2022-08-01T09:43:28;26.90;61.40
51383;DHT22;37475;43.358;1.248;2022-08-01T09:45:56;26.80;60.70
51383;DHT22;37475;43.358;1.248;2022-08-01T09:48:22;26.90;61.20
51383;DHT22;37475;43.358;1.248;2022-08-01T09:50:51;26.90;61.60
51383;DHT22;37475;43.358;1.248;2022-08-01T09:53:18;27.10;60.90
51383;DHT22;37475;43.358;1.248;2022-08-01T09:55:44;27.00;60.40
51383;DHT22;37475;43.358;1.248;2022-08-01T09:58:11;27.20;60.50
51383;DHT22;37475;43.358;1.248;2022-08-01T10:00:38;27.00;59.60
51383;DHT22;37475;43.358;1.248;2022-08-01T10:03:21;27.30;60.40
51383;DHT22;37475;43.358;1.248;2022-08-01T10:05:49;27.70;58.60
51383;DHT22;37475;43.358;1.248;2022-08-01T10:08:17;27.80;58.10
51383;DHT22;37475;43.358;1.248;2022-08-01T10:11:13;27.80;58.60
51383;DHT22;37475;43.358;1.248;2022-08-01T10:13:39;27.90;59.10
51383;DHT22;37475;43.358;1.248;2022-08-01T10:16:06;28.30;57.60
51383;DHT22;37475;43.358;1.248;2022-08-01T10:18:34;28.40;56.30
51383;DHT22;37475;43.358;1.248;2022-08-01T10:21:01;28.60;56.40
51383;DHT22;37475;43.358;1.248;2022-08-01T10:23:33;28.60;56.70
51383;DHT22;37475;43.358;1.248;2022-08-01T10:26:00;28.80;56.30
51383;DHT22;37475;43.358;1.248;2022-08-01T10:28:30;29.00;55.30
51383;DHT22;37475;43.358;1.248;2022-08-01T10:31:00;28.40;56.00
51383;DHT22;37475;43.358;1.248;2022-08-01T10:33:28;28.70;56.30
51383;DHT22;37475;43.358;1.248;2022-08-01T10:35:55;29.20;55.10
51383;DHT22;37475;43.358;1.248;2022-08-01T10:38:22;29.30;54.20
51383;DHT22;37475;43.358;1.248;2022-08-01T10:40:49;29.40;52.20
51383;DHT22;37475;43.358;1.248;2022-08-01T10:43:17;29.20;52.00
51383;DHT22;37475;43.358;1.248;2022-08-01T10:45:43;29.10;51.70
51383;DHT22;37475;43.358;1.248;2022-08-01T10:48:31;29.00;52.30
51383;DHT22;37475;43.358;1.248;2022-08-01T10:51:03;29.40;53.00
51383;DHT22;37475;43.358;1.248;2022-08-01T10:53:30;29.50;51.80
51383;DHT22;37475;43.358;1.248;2022-08-01T10:56:03;29.50;53.90
51383;DHT22;37475;43.358;1.248;2022-08-01T10:58:35;29.70;52.60
51383;DHT22;37475;43.358;1.248;2022-08-01T11:03:56;29.70;52.90
51383;DHT22;37475;43.358;1.248;2022-08-01T11:09:03;30.10;51.00
51383;DHT22;37475;43.358;1.248;2022-08-01T11:11:30;29.90;51.30
51383;DHT22;37475;43.358;1.248;2022-08-01T11:16:39;30.50;48.60
51383;DHT22;37475;43.358;1.248;2022-08-01T11:19:06;30.60;49.30
51383;DHT22;37475;43.358;1.248;2022-08-01T11:24:53;30.70;49.10
51383;DHT22;37475;43.358;1.248;2022-08-01T11:27:32;30.80;48.50
51383;DHT22;37475;43.358;1.248;2022-08-01T11:35:18;31.60;44.90
51383;DHT22;37475;43.358;1.248;2022-08-01T11:37:49;31.90;45.60
51383;DHT22;37475;43.358;1.248;2022-08-01T11:45:48;32.20;43.90
51383;DHT22;37475;43.358;1.248;2022-08-01T11:48:22;32.50;43.90
51383;DHT22;37475;43.358;1.248;2022-08-01T11:50:55;32.60;42.30
51383;DHT22;37475;43.358;1.248;2022-08-01T11:53:22;32.60;42.00
51383;DHT22;37475;43.358;1.248;2022-08-01T11:55:50;32.60;43.00
51383;DHT22;37475;43.358;1.248;2022-08-01T11:58:25;32.90;43.60
51383;DHT22;37475;43.358;1.248;2022-08-01T12:00:52;32.90;42.40
51383;DHT22;37475;43.358;1.248;2022-08-01T12:03:27;33.10;41.40
51383;DHT22;37475;43.358;1.248;2022-08-01T12:05:56;32.70;42.80
51383;DHT22;37475;43.358;1.248;2022-08-01T12:08:26;33.10;42.10
51383;DHT22;37475;43.358;1.248;2022-08-01T12:10:58;33.30;40.10
51383;DHT22;37475;43.358;1.248;2022-08-01T12:13:26;33.40;39.30
51383;DHT22;37475;43.358;1.248;2022-08-01T12:15:52;33.60;39.50
51383;DHT22;37475;43.358;1.248;2022-08-01T12:18:18;33.50;39.90
51383;DHT22;37475;43.358;1.248;2022-08-01T12:20:46;33.40;40.40
51383;DHT22;37475;43.358;1.248;2022-08-01T12:23:14;33.90;39.20
51383;DHT22;37475;43.358;1.248;2022-08-01T12:25:41;33.70;38.20
51383;DHT22;37475;43.358;1.248;2022-08-01T12:28:12;33.60;37.80
51383;DHT22;37475;43.358;1.248;2022-08-01T12:30:39;33.80;38.70
51383;DHT22;37475;43.358;1.248;2022-08-01T12:33:09;33.90;38.20
51383;DHT22;37475;43.358;1.248;2022-08-01T12:35:37;34.20;37.10
51383;DHT22;37475;43.358;1.248;2022-08-01T12:38:04;33.90;36.90
51383;DHT22;37475;43.358;1.248;2022-08-01T12:40:34;34.10;35.90
51383;DHT22;37475;43.358;1.248;2022-08-01T12:43:07;34.20;36.60
51383;DHT22;37475;43.358;1.248;2022-08-01T12:45:39;34.30;36.40
51383;DHT22;37475;43.358;1.248;2022-08-01T12:48:13;34.50;35.10
51383;DHT22;37475;43.358;1.248;2022-08-01T12:50:45;34.40;34.30
51383;DHT22;37475;43.358;1.248;2022-08-01T12:53:13;33.70;35.20
51383;DHT22;37475;43.358;1.248;2022-08-01T12:55:53;34.20;34.00
51383;DHT22;37475;43.358;1.248;2022-08-01T12:58:21;34.10;34.10
51383;DHT22;37475;43.358;1.248;2022-08-01T13:00:49;34.30;34.80
51383;DHT22;37475;43.358;1.248;2022-08-01T13:03:18;33.80;35.40
51383;DHT22;37475;43.358;1.248;2022-08-01T13:05:53;33.50;35.70
51383;DHT22;37475;43.358;1.248;2022-08-01T13:08:32;34.40;36.00
51383;DHT22;37475;43.358;1.248;2022-08-01T13:11:10;35.00;35.40
51383;DHT22;37475;43.358;1.248;2022-08-01T13:13:52;35.50;32.80
51383;DHT22;37475;43.358;1.248;2022-08-01T13:16:23;35.30;33.10
51383;DHT22;37475;43.358;1.248;2022-08-01T13:18:52;35.20;32.10
51383;DHT22;37475;43.358;1.248;2022-08-01T13:21:21;35.00;32.10
51383;DHT22;37475;43.358;1.248;2022-08-01T13:24:09;35.00;32.40
51383;DHT22;37475;43.358;1.248;2022-08-01T13:29:11;35.10;33.60
51383;DHT22;37475;43.358;1.248;2022-08-01T13:31:39;34.70;33.50
51383;DHT22;37475;43.358;1.248;2022-08-01T13:34:06;35.40;33.30
51383;DHT22;37475;43.358;1.248;2022-08-01T13:36:34;35.70;33.00
51383;DHT22;37475;43.358;1.248;2022-08-01T13:39:01;36.20;32.30
51383;DHT22;37475;43.358;1.248;2022-08-01T13:41:46;35.80;31.90
51383;DHT22;37475;43.358;1.248;2022-08-01T13:44:12;34.30;33.90
51383;DHT22;37475;43.358;1.248;2022-08-01T13:46:39;34.80;33.60
51383;DHT22;37475;43.358;1.248;2022-08-01T13:49:07;35.70;33.10
51383;DHT22;37475;43.358;1.248;2022-08-01T13:51:34;35.90;32.10
51383;DHT22;37475;43.358;1.248;2022-08-01T13:54:01;36.00;32.20
51383;DHT22;37475;43.358;1.248;2022-08-01T13:56:27;36.00;32.50
51383;DHT22;37475;43.358;1.248;2022-08-01T13:58:54;36.50;31.10
51383;DHT22;37475;43.358;1.248;2022-08-01T14:01:20;36.90;32.10
51383;DHT22;37475;43.358;1.248;2022-08-01T14:03:47;37.20;30.40
51383;DHT22;37475;43.358;1.248;2022-08-01T14:06:13;36.90;30.60
51383;DHT22;37475;43.358;1.248;2022-08-01T14:08:42;36.90;31.30
51383;DHT22;37475;43.358;1.248;2022-08-01T14:11:08;37.00;30.10
51383;DHT22;37475;43.358;1.248;2022-08-01T14:13:34;36.90;29.30
51383;DHT22;37475;43.358;1.248;2022-08-01T14:16:02;37.20;29.30
51383;DHT22;37475;43.358;1.248;2022-08-01T14:18:28;37.10;29.20
51383;DHT22;37475;43.358;1.248;2022-08-01T14:20:54;37.40;28.70
51383;DHT22;37475;43.358;1.248;2022-08-01T14:23:20;36.40;31.20
51383;DHT22;37475;43.358;1.248;2022-08-01T14:25:45;36.70;29.20
51383;DHT22;37475;43.358;1.248;2022-08-01T14:28:11;36.10;30.70
51383;DHT22;37475;43.358;1.248;2022-08-01T14:30:37;36.00;30.40
51383;DHT22;37475;43.358;1.248;2022-08-01T14:33:03;35.50;30.60
51383;DHT22;37475;43.358;1.248;2022-08-01T14:35:29;35.20;32.30
51383;DHT22;37475;43.358;1.248;2022-08-01T14:37:54;35.30;30.80
51383;DHT22;37475;43.358;1.248;2022-08-01T14:40:20;34.80;31.40
51383;DHT22;37475;43.358;1.248;2022-08-01T14:42:47;35.40;31.20
51383;DHT22;37475;43.358;1.248;2022-08-01T14:45:14;36.60;30.30
51383;DHT22;37475;43.358;1.248;2022-08-01T14:47:42;37.10;28.60
51383;DHT22;37475;43.358;1.248;2022-08-01T14:50:11;37.70;28.00
51383;DHT22;37475;43.358;1.248;2022-08-01T14:52:39;37.80;27.20
51383;DHT22;37475;43.358;1.248;2022-08-01T14:55:07;37.70;28.10
51383;DHT22;37475;43.358;1.248;2022-08-01T14:57:34;37.90;27.70
51383;DHT22;37475;43.358;1.248;2022-08-01T15:00:00;38.20;28.10
51383;DHT22;37475;43.358;1.248;2022-08-01T15:02:26;38.50;27.30
51383;DHT22;37475;43.358;1.248;2022-08-01T15:04:52;38.60;26.90
51383;DHT22;37475;43.358;1.248;2022-08-01T15:07:18;39.00;26.50
51383;DHT22;37475;43.358;1.248;2022-08-01T15:09:44;38.70;26.50
51383;DHT22;37475;43.358;1.248;2022-08-01T15:12:11;37.50;26.90
51383;DHT22;37475;43.358;1.248;2022-08-01T15:14:37;36.90;29.10
51383;DHT22;37475;43.358;1.248;2022-08-01T15:17:17;37.90;27.50
51383;DHT22;37475;43.358;1.248;2022-08-01T15:19:45;37.80;26.20
51383;DHT22;37475;43.358;1.248;2022-08-01T15:22:12;37.80;26.70
51383;DHT22;37475;43.358;1.248;2022-08-01T15:24:38;37.90;26.90
51383;DHT22;37475;43.358;1.248;2022-08-01T15:27:04;37.10;27.70
51383;DHT22;37475;43.358;1.248;2022-08-01T15:29:30;37.50;27.70
51383;DHT22;37475;43.358;1.248;2022-08-01T15:31:57;38.40;28.10
51383;DHT22;37475;43.358;1.248;2022-08-01T15:34:23;38.50;26.80
51383;DHT22;37475;43.358;1.248;2022-08-01T15:36:51;38.40;26.90
51383;DHT22;37475;43.358;1.248;2022-08-01T15:39:17;38.10;26.30
51383;DHT22;37475;43.358;1.248;2022-08-01T15:41:42;38.00;25.20
51383;DHT22;37475;43.358;1.248;2022-08-01T15:44:08;37.00;26.60
51383;DHT22;37475;43.358;1.248;2022-08-01T15:46:34;37.90;26.00
51383;DHT22;37475;43.358;1.248;2022-08-01T15:49:04;38.60;25.30
51383;DHT22;37475;43.358;1.248;2022-08-01T15:51:32;38.90;25.00
51383;DHT22;37475;43.358;1.248;2022-08-01T15:53:58;39.00;25.20
51383;DHT22;37475;43.358;1.248;2022-08-01T15:56:28;38.90;24.80
51383;DHT22;37475;43.358;1.248;2022-08-01T15:58:56;38.50;25.40
51383;DHT22;37475;43.358;1.248;2022-08-01T16:01:22;38.20;25.10
51383;DHT22;37475;43.358;1.248;2022-08-01T16:03:48;36.80;26.80
51383;DHT22;37475;43.358;1.248;2022-08-01T16:06:14;37.20;27.90
51383;DHT22;37475;43.358;1.248;2022-08-01T16:08:40;38.10;26.10
51383;DHT22;37475;43.358;1.248;2022-08-01T16:11:06;38.60;25.60
51383;DHT22;37475;43.358;1.248;2022-08-01T16:13:32;39.10;25.00
51383;DHT22;37475;43.358;1.248;2022-08-01T16:15:58;38.00;25.80
51383;DHT22;37475;43.358;1.248;2022-08-01T16:18:24;37.20;27.00
51383;DHT22;37475;43.358;1.248;2022-08-01T16:20:49;37.70;26.50
51383;DHT22;37475;43.358;1.248;2022-08-01T16:23:16;38.10;26.80